Time;durP1;ratioP1;P1;durP2;ratioP2;P2;SDS_P1;SDS_P2;PMS_P1;PMS_P2;Temp;Humidity;BMP_temperature;BMP_pressure;BME280_temperature;BME280_humidity;BME280_pressure;Samples;Min_cycle;Max_cycle;Signal;HPM_P1;HPM_P2
2023/12/03 00:01:14;;;;;;;33.80;16.77;;;0.60;99.90;;;;;;5016875;28;20042;-77
2023/12/03 00:03:40;;;;;;;11.82;7.00;;;0.60;99.90;;;;;;4987739;28;20846;-77
2023/12/03 00:06:06;;;;;;;30.40;13.57;;;0.60;99.90;;;;;;5004128;28;20405;-77
2023/12/03 00:08:31;;;;;;;36.08;16.60;;;0.60;99.90;;;;;;4999263;28;20172;-77
2023/12/03 00:10:57;;;;;;;32.78;16.02;;;0.60;99.90;;;;;;5002988;28;20046;-77
2023/12/03 00:13:22;;;;;;;14.20;8.13;;;0.60;99.90;;;;;;4988171;28;20078;-77
2023/12/03 00:15:48;;;;;;;32.95;16.17;;;0.60;99.90;;;;;;4990286;28;20072;-78
2023/12/03 00:18:13;;;;;;;39.08;18.50;;;0.50;99.90;;;;;;4990506;28;20034;-77
2023/12/03 00:20:39;;;;;;;31.55;14.63;;;0.50;99.90;;;;;;4985788;28;20125;-77
2023/12/03 00:23:04;;;;;;;28.83;15.02;;;0.50;99.90;;;;;;5001401;28;21167;-76
2023/12/03 00:25:30;;;;;;;31.30;14.07;;;0.60;99.90;;;;;;4998412;28;20072;-77
2023/12/03 00:27:55;;;;;;;22.67;11.18;;;0.60;99.90;;;;;;4987489;28;20044;-77
2023/12/03 00:30:21;;;;;;;29.35;13.18;;;0.50;99.90;;;;;;4988725;28;20088;-76
2023/12/03 00:32:46;;;;;;;27.45;14.45;;;0.50;99.90;;;;;;4986599;28;20099;-76
2023/12/03 00:35:14;;;;;;;23.98;11.10;;;0.60;99.90;;;;;;4997920;28;20034;-77
2023/12/03 00:37:40;;;;;;;28.73;11.57;;;0.60;99.90;;;;;;5000275;28;20065;-76
2023/12/03 00:40:06;;;;;;;14.48;7.03;;;0.60;99.90;;;;;;5000577;28;20026;-76
2023/12/03 00:42:32;;;;;;;21.48;8.77;;;0.60;99.90;;;;;;4997090;28;20026;-76
2023/12/03 00:44:57;;;;;;;23.52;11.27;;;0.60;99.90;;;;;;4976988;28;20025;-76
2023/12/03 00:47:23;;;;;;;21.85;11.52;;;0.60;99.90;;;;;;4966369;28;20026;-77
2023/12/03 00:49:48;;;;;;;13.13;7.50;;;0.50;99.90;;;;;;5002735;28;20029;-77
2023/12/03 00:52:14;;;;;;;19.17;7.45;;;0.60;99.90;;;;;;5000930;28;20370;-76
2023/12/03 00:54:39;;;;;;;36.78;16.15;;;0.60;99.90;;;;;;4987495;28;20394;-77
2023/12/03 00:57:05;;;;;;;14.32;7.97;;;0.70;99.90;;;;;;4996329;28;20555;-76
2023/12/03 00:59:30;;;;;;;15.70;7.95;;;0.60;99.90;;;;;;4998235;28;20105;-76
2023/12/03 01:01:56;;;;;;;32.63;15.43;;;0.60;99.90;;;;;;5001713;28;20444;-77
2023/12/03 01:04:21;;;;;;;24.30;9.02;;;0.60;99.90;;;;;;5002790;28;20505;-76
2023/12/03 01:06:47;;;;;;;21.23;8.30;;;0.60;99.90;;;;;;4999711;28;20053;-76
2023/12/03 01:09:13;;;;;;;29.98;13.73;;;0.50;99.90;;;;;;4994200;28;20038;-76
2023/12/03 01:11:40;;;;;;;35.33;12.90;;;0.50;99.90;;;;;;4978366;28;20053;-77
2023/12/03 01:14:06;;;;;;;31.45;13.35;;;0.50;99.90;;;;;;4967280;28;20026;-77
2023/12/03 01:16:32;;;;;;;32.33;12.93;;;0.50;99.90;;;;;;4984210;28;20044;-77
2023/12/03 01:18:58;;;;;;;30.90;11.90;;;0.50;99.90;;;;;;4978629;28;20053;-77
2023/12/03 01:21:24;;;;;;;18.27;8.75;;;0.50;99.90;;;;;;4984501;28;20169;-77
2023/12/03 01:23:49;;;;;;;36.72;15.27;;;0.50;99.90;;;;;;4974709;28;20041;-77
2023/12/03 01:26:15;;;;;;;32.30;14.63;;;0.60;99.90;;;;;;5000936;28;20042;-77
2023/12/03 01:28:40;;;;;;;24.15;11.68;;;0.50;99.90;;;;;;4998021;28;20466;-78
2023/12/03 01:31:06;;;;;;;35.33;16.17;;;0.60;99.90;;;;;;4985933;28;20434;-76
2023/12/03 01:33:32;;;;;;;39.35;18.17;;;0.50;99.90;;;;;;4998087;28;20065;-77
2023/12/03 01:35:57;;;;;;;36.03;14.43;;;0.50;99.90;;;;;;4985192;28;20527;-76
2023/12/03 01:38:23;;;;;;;24.67;12.27;;;0.60;99.90;;;;;;4983563;28;20065;-76
2023/12/03 01:40:54;;;;;;;38.95;14.57;;;0.60;99.90;;;;;;4983596;28;20040;-77
2023/12/03 01:43:20;;;;;;;27.17;11.15;;;0.60;99.90;;;;;;4985222;28;20034;-76
2023/12/03 01:45:45;;;;;;;29.35;13.73;;;0.60;99.90;;;;;;4982575;28;20362;-77
2023/12/03 01:48:13;;;;;;;43.88;20.55;;;0.60;99.90;;;;;;4999560;28;20042;-78
2023/12/03 01:50:39;;;;;;;44.70;20.13;;;0.70;99.90;;;;;;5001548;28;20405;-77
2023/12/03 01:53:05;;;;;;;28.33;12.25;;;0.70;99.90;;;;;;4953387;28;20030;-77
2023/12/03 01:55:31;;;;;;;44.85;18.10;;;0.60;99.90;;;;;;4999091;28;20042;-77
2023/12/03 01:57:57;;;;;;;26.85;10.55;;;0.60;99.90;;;;;;4997899;28;20034;-77
2023/12/03 02:00:22;;;;;;;18.30;8.43;;;0.60;99.90;;;;;;4996277;28;20037;-77
2023/12/03 02:02:48;;;;;;;46.70;20.25;;;0.60;99.90;;;;;;4980438;28;20458;-77
2023/12/03 02:05:13;;;;;;;38.65;16.33;;;0.80;99.90;;;;;;4944694;28;20509;-77
2023/12/03 02:07:39;;;;;;;43.33;21.10;;;0.80;99.90;;;;;;4974915;28;20045;-77
2023/12/03 02:10:05;;;;;;;30.38;15.40;;;0.70;99.90;;;;;;4996183;28;20037;-77
2023/12/03 02:12:30;;;;;;;39.10;17.60;;;0.70;99.90;;;;;;5011752;28;20543;-77
2023/12/03 02:14:56;;;;;;;26.70;10.73;;;0.70;99.90;;;;;;4985172;28;20025;-78
2023/12/03 02:17:21;;;;;;;34.17;14.23;;;0.70;99.90;;;;;;4996048;28;20034;-77
2023/12/03 02:19:47;;;;;;;36.35;16.98;;;0.80;99.90;;;;;;5015055;28;20093;-77
2023/12/03 02:22:12;;;;;;;24.55;11.30;;;0.70;99.90;;;;;;4994229;28;20084;-77
2023/12/03 02:24:38;;;;;;;42.88;18.10;;;0.70;99.90;;;;;;5012476;28;20053;-77
2023/12/03 02:27:04;;;;;;;26.15;12.77;;;0.80;99.90;;;;;;4996308;28;20026;-77
2023/12/03 02:29:29;;;;;;;41.45;18.83;;;0.80;99.90;;;;;;4998839;28;20538;-78
2023/12/03 02:31:55;;;;;;;49.25;23.40;;;0.80;99.90;;;;;;4991509;28;20033;-77
2023/12/03 02:34:20;;;;;;;33.75;16.42;;;0.80;99.90;;;;;;4978611;28;20059;-77
2023/12/03 02:36:46;;;;;;;15.85;7.45;;;0.80;99.90;;;;;;4972076;28;20026;-77
2023/12/03 02:39:12;;;;;;;28.05;12.85;;;0.80;99.90;;;;;;4994627;28;20029;-77
2023/12/03 02:41:37;;;;;;;26.42;10.75;;;0.90;99.90;;;;;;4981536;28;20508;-77
2023/12/03 02:44:03;;;;;;;28.83;9.57;;;0.90;99.90;;;;;;4989659;28;20044;-77
2023/12/03 02:46:28;;;;;;;37.63;15.70;;;0.90;99.90;;;;;;4999105;28;20033;-77
2023/12/03 02:48:54;;;;;;;14.73;6.80;;;0.90;99.90;;;;;;4982356;28;20540;-77
2023/12/03 02:51:20;;;;;;;37.13;17.55;;;0.90;99.90;;;;;;4999054;28;20037;-78
2023/12/03 02:53:45;;;;;;;24.27;11.30;;;0.80;99.90;;;;;;4999855;28;20121;-77
2023/12/03 02:56:12;;;;;;;28.88;13.27;;;0.90;99.90;;;;;;4996041;28;20034;-77
2023/12/03 02:58:37;;;;;;;45.67;20.90;;;0.90;99.90;;;;;;4983502;28;20040;-77
2023/12/03 03:01:04;;;;;;;33.50;10.65;;;0.90;99.90;;;;;;4968667;28;20461;-77
2023/12/03 03:03:30;;;;;;;23.65;11.13;;;0.90;99.90;;;;;;4957087;28;20512;-77
2023/12/03 03:05:55;;;;;;;29.13;13.48;;;0.80;99.90;;;;;;4996250;28;20157;-77
2023/12/03 03:08:21;;;;;;;48.05;18.20;;;0.90;99.90;;;;;;4981083;28;20486;-77
2023/12/03 03:10:46;;;;;;;34.67;14.30;;;1.00;99.90;;;;;;4997693;28;20034;-77
2023/12/03 03:13:12;;;;;;;28.27;12.95;;;1.00;99.90;;;;;;4992578;28;20041;-77
2023/12/03 03:15:37;;;;;;;46.65;20.20;;;0.90;99.90;;;;;;4966574;28;20039;-76
2023/12/03 03:18:03;;;;;;;25.98;13.07;;;0.90;99.90;;;;;;5008844;28;20057;-77
2023/12/03 03:20:29;;;;;;;33.50;13.55;;;0.90;99.90;;;;;;4998439;28;20130;-77
2023/12/03 03:22:55;;;;;;;36.60;13.10;;;0.90;99.90;;;;;;4989655;28;20035;-78
2023/12/03 03:25:21;;;;;;;21.42;9.15;;;0.90;99.90;;;;;;4968544;28;20034;-77
2023/12/03 03:27:46;;;;;;;32.33;14.50;;;0.90;99.90;;;;;;4980559;28;20034;-77
2023/12/03 03:30:12;;;;;;;12.88;6.45;;;0.90;99.90;;;;;;4976078;28;20038;-77
2023/12/03 03:32:41;;;;;;;27.38;13.05;;;1.00;99.90;;;;;;4997128;28;20073;-77
2023/12/03 03:35:07;;;;;;;25.75;12.90;;;0.90;99.90;;;;;;5003495;28;20034;-78
2023/12/03 03:37:34;;;;;;;30.42;12.38;;;1.00;99.90;;;;;;4990010;28;20552;-77
2023/12/03 03:40:00;;;;;;;21.42;9.20;;;0.90;99.90;;;;;;4990779;28;20029;-77
2023/12/03 03:42:25;;;;;;;25.63;12.05;;;0.90;99.90;;;;;;4992030;28;20034;-77
2023/12/03 03:44:51;;;;;;;42.35;19.55;;;0.90;99.90;;;;;;4999382;28;20080;-80
2023/12/03 03:47:17;;;;;;;30.20;12.77;;;1.00;99.90;;;;;;4989707;28;20035;-80
2023/12/03 03:49:42;;;;;;;31.52;11.80;;;0.90;99.90;;;;;;4997699;28;20030;-80
2023/12/03 03:52:08;;;;;;;27.45;13.70;;;1.00;99.90;;;;;;4962531;28;20022;-80
2023/12/03 03:54:33;;;;;;;26.42;13.07;;;0.90;99.90;;;;;;4997790;28;20034;-79
2023/12/03 03:56:59;;;;;;;25.33;10.48;;;0.90;99.90;;;;;;5000862;28;20026;-80
2023/12/03 03:59:25;;;;;;;20.45;9.55;;;1.00;99.90;;;;;;4981712;28;20019;-80
2023/12/03 04:01:51;;;;;;;25.02;10.88;;;1.00;99.90;;;;;;4952929;28;20034;-79
2023/12/03 04:04:16;;;;;;;21.55;10.20;;;1.00;99.90;;;;;;4992384;28;20038;-80
2023/12/03 04:06:44;;;;;;;28.92;12.18;;;1.00;99.90;;;;;;5004311;28;20033;-79
2023/12/03 04:09:10;;;;;;;18.80;7.38;;;1.00;99.90;;;;;;4979599;28;20041;-80
2023/12/03 04:11:39;;;;;;;20.73;9.80;;;1.00;99.90;;;;;;4980341;28;20046;-79
2023/12/03 04:14:06;;;;;;;39.40;17.48;;;1.00;99.90;;;;;;5015679;28;20045;-79
2023/12/03 04:16:31;;;;;;;30.75;14.15;;;1.00;99.90;;;;;;4979840;28;20611;-80
2023/12/03 04:18:57;;;;;;;26.10;12.32;;;1.00;99.90;;;;;;4981562;28;20038;-79
2023/12/03 04:21:23;;;;;;;43.65;16.95;;;1.00;99.90;;;;;;5002899;28;20029;-79
2023/12/03 04:23:48;;;;;;;26.00;12.45;;;1.00;99.90;;;;;;4996964;28;20096;-80
2023/12/03 04:26:15;;;;;;;35.03;14.73;;;1.10;99.90;;;;;;4986765;28;20038;-79
2023/12/03 04:28:41;;;;;;;33.60;15.48;;;1.00;99.90;;;;;;5016013;28;20034;-80
2023/12/03 04:31:19;;;;;;;39.95;16.85;;;1.00;99.90;;;;;;4978193;28;20069;-79
2023/12/03 04:33:45;;;;;;;18.52;8.50;;;1.00;99.90;;;;;;5013452;28;20504;-80
2023/12/03 04:36:11;;;;;;;12.98;7.43;;;1.00;99.90;;;;;;4973369;28;20034;-80
2023/12/03 04:38:37;;;;;;;33.65;14.30;;;1.00;99.90;;;;;;4995212;28;20532;-79
2023/12/03 04:41:02;;;;;;;12.38;6.50;;;1.10;99.90;;;;;;4990187;28;20046;-80
2023/12/03 04:43:28;;;;;;;10.00;4.65;;;1.10;99.90;;;;;;4963088;28;20166;-80
2023/12/03 04:45:54;;;;;;;29.20;13.25;;;1.00;99.90;;;;;;4994461;28;20041;-79
2023/12/03 04:48:19;;;;;;;28.58;13.43;;;1.10;99.90;;;;;;4999408;28;20077;-80
2023/12/03 04:50:45;;;;;;;30.27;13.75;;;1.00;99.90;;;;;;4985822;28;20057;-81
2023/12/03 04:53:10;;;;;;;23.40;9.80;;;1.00;99.90;;;;;;4968355;28;20595;-80
2023/12/03 04:55:36;;;;;;;31.48;13.75;;;1.00;99.90;;;;;;4985817;28;20034;-79
2023/12/03 04:58:01;;;;;;;33.88;14.73;;;1.00;99.90;;;;;;4975624;28;20573;-79
2023/12/03 05:00:27;;;;;;;31.27;12.48;;;1.00;99.90;;;;;;5002642;28;20495;-80
2023/12/03 05:02:52;;;;;;;21.60;10.00;;;1.10;99.90;;;;;;4984508;28;20445;-80
2023/12/03 05:05:18;;;;;;;28.15;11.00;;;1.00;99.90;;;;;;4987014;28;20078;-80
2023/12/03 05:07:43;;;;;;;25.48;11.75;;;1.00;99.90;;;;;;4993503;28;20092;-80
2023/12/03 05:10:09;;;;;;;23.13;10.68;;;1.00;99.90;;;;;;4981650;28;20069;-80
2023/12/03 05:12:34;;;;;;;30.58;13.43;;;1.00;99.90;;;;;;4982452;28;20081;-80
2023/12/03 05:15:00;;;;;;;22.05;10.57;;;1.00;99.90;;;;;;4991507;28;20026;-79
2023/12/03 05:17:25;;;;;;;27.80;13.55;;;1.00;99.90;;;;;;4988159;28;20027;-80
2023/12/03 05:19:51;;;;;;;26.13;12.13;;;1.00;99.90;;;;;;4984733;28;20080;-79
2023/12/03 05:22:17;;;;;;;25.40;11.30;;;1.00;99.90;;;;;;4990134;28;20080;-80
2023/12/03 05:24:42;;;;;;;26.52;13.45;;;1.00;99.90;;;;;;4987512;28;20042;-81
2023/12/03 05:27:08;;;;;;;28.02;11.65;;;1.00;99.90;;;;;;4985438;28;20042;-81
2023/12/03 05:29:33;;;;;;;17.45;6.40;;;0.90;99.90;;;;;;4971855;28;20031;-80
2023/12/03 05:31:59;;;;;;;27.13;13.57;;;0.90;99.90;;;;;;4989077;28;20030;-81
2023/12/03 05:34:24;;;;;;;26.92;12.63;;;1.00;99.90;;;;;;5000949;28;20030;-80
2023/12/03 05:36:51;;;;;;;11.15;5.35;;;1.00;99.90;;;;;;4986887;28;20502;-81
2023/12/03 05:39:16;;;;;;;27.35;11.23;;;1.00;99.90;;;;;;4985790;28;20030;-79
2023/12/03 05:41:42;;;;;;;23.52;12.70;;;1.00;99.90;;;;;;4998309;28;20026;-80
2023/12/03 05:44:08;;;;;;;20.90;8.07;;;1.00;99.90;;;;;;5002432;28;20390;-80
2023/12/03 05:46:44;;;;;;;11.05;5.63;;;1.00;99.90;;;;;;5001896;28;20018;-80
2023/12/03 05:49:09;;;;;;;25.17;10.95;;;1.00;99.90;;;;;;4987860;28;20065;-80
2023/12/03 05:51:35;;;;;;;29.92;13.35;;;1.00;99.90;;;;;;5001463;28;20480;-81
2023/12/03 05:54:00;;;;;;;17.20;7.50;;;1.00;99.90;;;;;;4997694;28;20080;-79
2023/12/03 05:56:26;;;;;;;15.50;5.70;;;1.00;99.90;;;;;;4998457;28;20050;-80
2023/12/03 05:58:51;;;;;;;8.32;4.97;;;1.00;99.90;;;;;;5001613;28;20113;-80
2023/12/03 06:01:22;;;;;;;18.63;7.93;;;1.00;99.90;;;;;;4995058;28;20200;-81
2023/12/03 06:03:48;;;;;;;25.35;11.90;;;1.00;99.90;;;;;;4985324;28;20061;-77
2023/12/03 06:06:13;;;;;;;18.38;8.52;;;1.00;99.90;;;;;;4999647;28;20037;-78
2023/12/03 06:08:39;;;;;;;20.92;8.40;;;1.00;99.90;;;;;;4993766;28;20034;-77
2023/12/03 06:11:05;;;;;;;21.00;10.63;;;1.00;99.90;;;;;;4977750;28;20044;-78
2023/12/03 06:13:30;;;;;;;18.98;8.10;;;1.00;99.90;;;;;;4998154;28;20096;-78
2023/12/03 06:15:56;;;;;;;8.30;6.15;;;1.00;99.90;;;;;;5002332;28;20064;-78
2023/12/03 06:18:21;;;;;;;14.60;6.97;;;1.00;99.90;;;;;;4979195;28;20448;-78
2023/12/03 06:20:47;;;;;;;16.60;5.75;;;1.00;99.90;;;;;;5009193;28;20600;-79
2023/12/03 06:23:12;;;;;;;13.07;5.68;;;1.10;99.90;;;;;;5004196;28;20045;-78
2023/12/03 06:25:38;;;;;;;14.65;6.68;;;1.00;99.90;;;;;;4986460;28;20077;-78
2023/12/03 06:28:04;;;;;;;15.60;6.78;;;1.00;99.90;;;;;;4974072;28;20038;-78
2023/12/03 06:30:29;;;;;;;17.73;7.30;;;1.10;99.90;;;;;;4999384;28;20038;-77
2023/12/03 06:32:55;;;;;;;25.90;12.43;;;1.00;99.90;;;;;;4982995;28;20085;-78
2023/12/03 06:35:21;;;;;;;21.83;9.77;;;1.00;99.90;;;;;;4994092;28;20046;-78
2023/12/03 06:37:46;;;;;;;12.13;6.07;;;1.00;99.90;;;;;;4987463;28;20057;-78
2023/12/03 06:40:14;;;;;;;19.77;7.15;;;1.00;99.90;;;;;;4959255;28;20398;-77
2023/12/03 06:42:39;;;;;;;10.95;4.85;;;1.00;99.90;;;;;;4999471;28;20088;-79
2023/12/03 06:45:06;;;;;;;12.02;5.68;;;1.00;99.90;;;;;;5003096;28;20042;-78
2023/12/03 06:47:31;;;;;;;15.55;4.65;;;1.00;99.90;;;;;;4979146;28;20452;-78
2023/12/03 06:49:57;;;;;;;21.15;7.35;;;1.00;99.90;;;;;;4972511;28;20527;-78
2023/12/03 06:52:22;;;;;;;21.75;10.43;;;1.00;99.90;;;;;;4989904;28;20108;-78
2023/12/03 06:54:48;;;;;;;15.68;7.00;;;1.00;99.90;;;;;;4986620;28;20038;-78
2023/12/03 06:57:13;;;;;;;13.48;5.93;;;1.00;99.90;;;;;;4982002;28;20030;-77
2023/12/03 06:59:39;;;;;;;13.02;5.22;;;1.00;99.90;;;;;;4995761;28;20033;-78
2023/12/03 07:02:04;;;;;;;13.23;6.40;;;1.00;99.90;;;;;;4977992;28;20053;-79
2023/12/03 07:04:30;;;;;;;16.55;6.07;;;1.00;99.90;;;;;;4965931;28;20041;-77
2023/12/03 07:06:55;;;;;;;19.02;8.13;;;1.10;99.90;;;;;;4982928;28;20165;-77
2023/12/03 07:09:22;;;;;;;18.27;8.32;;;1.00;99.90;;;;;;4980757;28;20041;-78
2023/12/03 07:11:47;;;;;;;7.57;3.05;;;1.00;99.90;;;;;;4981976;28;20120;-78
2023/12/03 07:14:13;;;;;;;10.43;5.40;;;1.00;99.90;;;;;;4999135;28;20080;-77
2023/12/03 07:16:38;;;;;;;14.27;7.18;;;1.00;99.90;;;;;;5003618;28;20030;-78
2023/12/03 07:19:04;;;;;;;15.52;6.60;;;1.00;99.90;;;;;;4987371;28;20096;-79
2023/12/03 07:21:29;;;;;;;12.35;6.28;;;1.00;99.90;;;;;;5005273;28;20142;-79
2023/12/03 07:23:55;;;;;;;15.10;7.82;;;1.00;99.90;;;;;;4982924;28;20050;-78
2023/12/03 07:26:20;;;;;;;16.80;6.97;;;1.00;99.90;;;;;;4999218;28;20041;-78
2023/12/03 07:28:47;;;;;;;18.58;9.10;;;1.00;99.90;;;;;;4983543;28;20049;-78
2023/12/03 07:31:13;;;;;;;13.55;5.72;;;1.00;99.90;;;;;;4997146;28;20053;-79
2023/12/03 07:33:38;;;;;;;15.43;8.48;;;1.00;99.90;;;;;;4980141;28;20486;-77
2023/12/03 07:36:04;;;;;;;22.40;11.02;;;1.00;99.90;;;;;;4999719;28;20049;-78
2023/12/03 07:38:30;;;;;;;13.25;5.88;;;1.00;99.90;;;;;;4998315;28;20079;-79
2023/12/03 07:40:56;;;;;;;11.68;6.97;;;1.00;99.90;;;;;;4999599;28;20061;-78
2023/12/03 07:43:22;;;;;;;18.40;8.35;;;1.00;99.90;;;;;;4996920;28;20462;-78
2023/12/03 07:45:47;;;;;;;26.75;12.05;;;1.00;99.90;;;;;;5001265;28;20041;-77
2023/12/03 07:48:13;;;;;;;16.33;6.93;;;1.00;99.90;;;;;;4976836;28;20530;-78
2023/12/03 07:50:38;;;;;;;23.55;7.10;;;1.00;99.90;;;;;;4997149;28;20034;-77
2023/12/03 07:53:04;;;;;;;15.52;7.65;;;1.00;99.90;;;;;;5001386;28;20141;-77
2023/12/03 07:55:29;;;;;;;14.25;6.45;;;1.10;99.90;;;;;;5003599;28;20126;-79
2023/12/03 07:57:55;;;;;;;11.50;4.97;;;1.00;99.90;;;;;;5005235;28;20038;-78
2023/12/03 08:00:21;;;;;;;19.30;8.88;;;1.00;99.90;;;;;;5002554;28;20034;-77
2023/12/03 08:02:47;;;;;;;9.00;4.30;;;1.10;99.90;;;;;;5004083;28;20030;-78
2023/12/03 08:05:12;;;;;;;17.38;7.55;;;1.00;99.90;;;;;;4986789;28;20552;-78
2023/12/03 08:07:38;;;;;;;18.27;9.30;;;1.00;99.90;;;;;;5001151;28;20545;-78
2023/12/03 08:10:04;;;;;;;6.50;3.70;;;1.00;99.90;;;;;;5015601;28;20076;-77
2023/12/03 08:12:29;;;;;;;15.32;7.78;;;1.00;99.90;;;;;;4986923;28;20088;-77
2023/12/03 08:14:55;;;;;;;21.10;8.55;;;1.00;99.90;;;;;;4988823;28;20049;-78
2023/12/03 08:17:20;;;;;;;21.17;10.00;;;1.00;99.90;;;;;;4988762;28;20037;-77
2023/12/03 08:19:46;;;;;;;10.27;5.00;;;1.00;99.90;;;;;;4989023;28;20033;-78
2023/12/03 08:22:12;;;;;;;19.48;7.45;;;1.00;99.90;;;;;;4998098;28;20034;-78
2023/12/03 08:24:37;;;;;;;12.18;5.50;;;0.90;99.90;;;;;;5006219;28;20695;-80
2023/12/03 08:27:03;;;;;;;22.92;11.68;;;1.00;99.90;;;;;;4974598;28;20054;-80
2023/12/03 08:29:29;;;;;;;19.35;8.43;;;0.90;99.90;;;;;;5017264;28;20081;-80
2023/12/03 08:31:54;;;;;;;16.48;7.38;;;0.90;99.90;;;;;;4988714;28;20069;-79
2023/12/03 08:34:20;;;;;;;23.20;11.65;;;1.00;99.90;;;;;;4994644;28;20029;-79
2023/12/03 08:36:45;;;;;;;22.13;9.55;;;0.90;99.90;;;;;;4998880;28;20095;-78
2023/12/03 08:39:12;;;;;;;16.70;7.72;;;0.90;99.90;;;;;;4967473;28;20038;-79
2023/12/03 08:41:38;;;;;;;17.48;9.82;;;1.00;99.90;;;;;;4974778;28;20041;-79
2023/12/03 08:44:03;;;;;;;22.15;11.27;;;0.90;99.90;;;;;;4999458;28;20026;-78
2023/12/03 08:46:29;;;;;;;18.85;7.35;;;0.90;99.90;;;;;;4998483;28;20133;-78
2023/12/03 08:48:55;;;;;;;12.55;5.53;;;0.90;99.90;;;;;;4997733;28;20145;-78
2023/12/03 08:51:21;;;;;;;21.15;10.13;;;1.00;99.90;;;;;;4993592;28;20116;-79
2023/12/03 08:53:47;;;;;;;15.48;6.75;;;1.00;99.90;;;;;;4995328;28;20124;-78
2023/12/03 08:56:12;;;;;;;20.10;10.75;;;1.10;99.90;;;;;;5000133;28;20025;-78
2023/12/03 08:58:41;;;;;;;12.45;5.38;;;1.10;99.90;;;;;;4987691;28;20418;-79
2023/12/03 09:01:09;;;;;;;11.40;4.93;;;1.20;99.90;;;;;;4990153;28;20038;-78
2023/12/03 09:03:37;;;;;;;14.40;6.47;;;1.20;99.90;;;;;;4996575;28;20081;-78
2023/12/03 09:06:03;;;;;;;23.45;9.90;;;1.40;99.90;;;;;;5001285;28;20046;-78
2023/12/03 09:08:29;;;;;;;11.60;5.28;;;1.50;99.90;;;;;;5000999;28;20180;-78
2023/12/03 09:10:54;;;;;;;13.65;6.63;;;1.60;99.90;;;;;;5003791;28;20561;-78
2023/12/03 09:13:20;;;;;;;5.60;2.50;;;1.60;99.90;;;;;;4993971;28;20045;-79
2023/12/03 09:15:46;;;;;;;17.90;7.80;;;1.70;99.90;;;;;;4999042;28;20034;-79
2023/12/03 09:18:11;;;;;;;23.60;9.60;;;1.70;99.90;;;;;;4987420;28;20038;-81
2023/12/03 09:20:37;;;;;;;10.65;5.60;;;1.60;99.90;;;;;;4998113;28;20072;-80
2023/12/03 09:23:02;;;;;;;18.58;7.68;;;1.80;99.90;;;;;;4984820;28;20065;-81
2023/12/03 09:25:29;;;;;;;13.70;7.88;;;1.90;99.90;;;;;;5000263;28;20026;-82
2023/12/03 09:27:54;;;;;;;21.55;9.57;;;2.00;99.90;;;;;;4999116;28;20038;-81
2023/12/03 09:30:20;;;;;;;18.98;7.70;;;2.00;99.90;;;;;;4984615;28;20140;-81
2023/12/03 09:32:46;;;;;;;23.33;11.90;;;2.10;99.90;;;;;;4997392;28;20086;-81
2023/12/03 09:35:11;;;;;;;21.30;8.57;;;2.20;99.90;;;;;;4981702;28;20034;-79
2023/12/03 09:37:37;;;;;;;22.35;10.35;;;2.40;99.90;;;;;;4981226;28;20034;-78
2023/12/03 09:40:03;;;;;;;18.10;7.68;;;2.40;99.90;;;;;;4994670;28;20026;-78
2023/12/03 09:42:29;;;;;;;16.45;8.82;;;2.50;99.90;;;;;;4984049;28;20397;-77
2023/12/03 09:45:03;;;;;;;16.63;8.05;;;2.60;99.90;;;;;;4997958;28;20069;-78
2023/12/03 09:47:33;;;;;;;19.55;8.88;;;2.60;99.90;;;;;;4991513;28;20026;-78
2023/12/03 09:50:00;;;;;;;11.25;5.75;;;2.70;99.90;;;;;;4984153;28;20442;-78
2023/12/03 09:52:26;;;;;;;17.15;9.00;;;2.80;99.90;;;;;;4980260;28;20186;-78
2023/12/03 09:54:51;;;;;;;16.50;8.23;;;2.90;99.90;;;;;;4987161;28;20027;-79
2023/12/03 09:57:17;;;;;;;11.43;5.22;;;2.90;99.90;;;;;;4990427;28;20096;-79
2023/12/03 09:59:46;;;;;;;14.75;5.95;;;3.10;99.90;;;;;;4982635;28;20026;-79
2023/12/03 10:02:13;;;;;;;13.63;6.35;;;3.20;99.90;;;;;;5011098;28;20019;-78
2023/12/03 10:04:39;;;;;;;9.27;4.20;;;3.20;99.90;;;;;;4988678;28;20097;-77
2023/12/03 10:07:04;;;;;;;12.10;5.95;;;3.30;99.90;;;;;;4990021;28;20030;-77
2023/12/03 10:09:30;;;;;;;14.70;6.50;;;3.40;99.90;;;;;;4973635;28;20460;-77
2023/12/03 10:12:00;;;;;;;13.05;7.35;;;3.40;99.90;;;;;;4950355;28;20137;-77
2023/12/03 10:14:26;;;;;;;14.93;7.07;;;3.50;99.90;;;;;;4994596;28;20065;-77
2023/12/03 10:16:52;;;;;;;14.43;7.03;;;3.50;99.90;;;;;;4978087;28;20042;-77
2023/12/03 10:19:24;;;;;;;13.68;6.55;;;3.60;99.90;;;;;;4985112;28;20046;-78
2023/12/03 10:21:50;;;;;;;10.68;4.95;;;3.60;99.90;;;;;;4999611;28;20039;-77
2023/12/03 10:24:15;;;;;;;19.00;7.63;;;3.60;99.90;;;;;;4995130;28;20520;-78
2023/12/03 10:26:51;;;;;;;18.00;8.93;;;3.50;99.90;;;;;;4985539;28;20034;-78
2023/12/03 10:29:19;;;;;;;15.40;7.18;;;3.50;99.90;;;;;;4980826;28;20536;-77
2023/12/03 10:31:47;;;;;;;18.08;8.48;;;3.50;99.90;;;;;;5001181;28;20521;-78
2023/12/03 10:34:13;;;;;;;23.98;9.70;;;3.50;99.90;;;;;;5004541;28;20049;-78
2023/12/03 10:36:42;;;;;;;10.60;4.95;;;3.30;99.90;;;;;;5002135;28;20034;-78
2023/12/03 10:39:07;;;;;;;12.90;5.60;;;3.40;99.90;;;;;;5004431;28;20064;-78
2023/12/03 10:41:33;;;;;;;12.68;7.18;;;3.30;99.90;;;;;;5003022;28;20164;-78
2023/12/03 10:43:58;;;;;;;7.80;3.75;;;3.30;99.90;;;;;;5005805;28;20030;-80
2023/12/03 10:46:24;;;;;;;21.67;11.02;;;3.20;99.90;;;;;;4990319;28;20037;-80
2023/12/03 10:48:50;;;;;;;15.30;7.63;;;3.30;99.90;;;;;;5006985;28;20040;-81
2023/12/03 10:51:15;;;;;;;18.90;9.45;;;3.20;99.90;;;;;;4986976;28;21234;-80
2023/12/03 10:53:41;;;;;;;24.15;10.57;;;3.30;99.90;;;;;;5000696;28;20048;-81
2023/12/03 10:56:07;;;;;;;19.42;9.98;;;3.30;99.90;;;;;;5004495;28;20535;-80
2023/12/03 10:58:37;;;;;;;18.83;9.63;;;3.30;99.90;;;;;;4985906;28;20126;-80
2023/12/03 11:01:20;;;;;;;21.25;9.80;;;3.20;99.90;;;;;;5002460;28;20124;-80
2023/12/03 11:03:49;;;;;;;20.88;8.10;;;3.30;99.90;;;;;;5018827;28;21268;-80
2023/12/03 11:06:15;;;;;;;17.95;8.60;;;3.30;99.90;;;;;;5003636;28;20169;-80
2023/12/03 11:08:41;;;;;;;16.17;7.20;;;3.30;99.90;;;;;;5002818;28;20826;-80
2023/12/03 11:11:08;;;;;;;17.63;7.60;;;3.40;99.90;;;;;;5000851;28;20398;-80
2023/12/03 11:13:34;;;;;;;23.02;9.60;;;3.50;99.90;;;;;;4984419;28;20139;-80
2023/12/03 11:16:00;;;;;;;22.88;10.23;;;3.60;99.90;;;;;;5004448;28;20498;-80
2023/12/03 11:18:25;;;;;;;18.13;8.48;;;3.60;99.90;;;;;;4989409;28;20142;-80
2023/12/03 11:20:51;;;;;;;19.13;9.48;;;3.60;99.90;;;;;;4996414;28;20038;-80
2023/12/03 11:23:37;;;;;;;24.20;10.07;;;3.70;99.90;;;;;;4987978;28;20034;-80
2023/12/03 11:26:04;;;;;;;;;;;3.60;99.90;;;;;;4992217;28;20039;-80
2023/12/03 11:28:29;;;;;;;;;;;3.50;99.90;;;;;;4995320;28;20566;-80
2023/12/03 11:30:55;;;;;;;18.30;8.13;;;3.50;99.90;;;;;;4996020;28;19922;-80
2023/12/03 11:33:21;;;;;;;13.18;6.65;;;3.60;99.90;;;;;;4998505;28;20496;-81
2023/12/03 11:35:48;;;;;;;22.13;10.10;;;3.60;99.90;;;;;;4978327;28;20495;-80
2023/12/03 11:38:25;;;;;;;23.17;11.35;;;3.40;99.90;;;;;;4991126;28;20496;-81
2023/12/03 11:40:51;;;;;;;20.10;9.60;;;3.40;99.90;;;;;;5023085;28;20516;-80
2023/12/03 11:43:26;;;;;;;23.10;8.07;;;3.40;99.90;;;;;;4990695;28;20026;-80
2023/12/03 11:45:52;;;;;;;;;;;3.40;99.90;;;;;;5011544;28;20045;-80
2023/12/03 11:48:18;;;;;;;13.90;6.53;;;3.40;99.90;;;;;;5022812;28;19921;-80
2023/12/03 11:50:44;;;;;;;17.92;8.23;;;3.50;99.90;;;;;;4988865;28;20045;-80
2023/12/03 11:53:13;;;;;;;19.75;9.43;;;3.50;99.90;;;;;;5004362;28;20108;-80
2023/12/03 11:55:42;;;;;;;20.00;10.52;;;3.40;99.90;;;;;;4990746;28;20049;-79
2023/12/03 11:58:07;;;;;;;20.92;10.55;;;3.50;99.90;;;;;;5003682;28;20042;-79
2023/12/03 12:00:33;;;;;;;15.50;7.55;;;3.60;99.90;;;;;;4988813;28;20029;-80
2023/12/03 12:03:00;;;;;;;12.02;6.78;;;3.80;99.90;;;;;;4987963;28;20031;-80
2023/12/03 12:05:25;;;;;;;21.13;10.27;;;3.80;99.90;;;;;;4988254;28;20050;-81
2023/12/03 12:07:58;;;;;;;17.58;9.25;;;3.90;99.90;;;;;;4977388;28;20033;-80
2023/12/03 12:10:24;;;;;;;21.95;9.95;;;4.00;99.90;;;;;;4982410;28;20402;-85
2023/12/03 12:12:57;;;;;;;18.82;8.90;;;4.00;99.90;;;;;;4854623;28;10000496;-83
2023/12/03 12:15:25;;;;;;;17.30;8.35;;;4.10;99.90;;;;;;4992427;28;20321;-83
2023/12/03 12:17:51;;;;;;;16.25;8.52;;;4.30;99.90;;;;;;5003945;28;20033;-84
2023/12/03 12:20:26;;;;;;;18.73;9.05;;;4.20;99.90;;;;;;4990963;28;20033;-84
2023/12/03 12:22:54;;;;;;;17.17;9.00;;;4.40;99.90;;;;;;5031558;28;20046;-84
2023/12/03 12:25:20;;;;;;;21.33;10.93;;;4.60;99.90;;;;;;4991902;28;20514;-83
2023/12/03 12:27:49;;;;;;;14.75;6.80;;;4.70;99.90;;;;;;4988751;28;20049;-84
2023/12/03 12:30:23;;;;;;;19.05;9.63;;;4.80;99.90;;;;;;4990231;28;20490;-83
2023/12/03 12:32:51;;;;;;;19.85;9.57;;;4.90;99.90;;;;;;4998037;28;20565;-85
2023/12/03 12:35:21;;;;;;;19.85;9.20;;;4.90;99.90;;;;;;4986548;28;20751;-85
2023/12/03 12:37:47;;;;;;;20.80;9.70;;;4.90;99.90;;;;;;5000991;28;20022;-85